Arriola, Colorado
Current Conditions -  °F | °C
As of 10:53 PM on Saturday 25 Oct 2014 (Local Time) from KCEZ Reporting Station
Broken Clouds Broken Clouds  
Wind Chill: 47°   Ceiling: 8500
Heat Index: 47°   Visibility: 10mi
Dew Point: 36°   Wind: 0mph
Humidity: 66%   Direction: NA
Pressure: 30.19"   Gusts: NA
Location:  37.3484°N, 108.734°W
Report Text: KCEZ 260453Z AUTO 00000KT 10SM BKN085 08/02 A3019 RMK AO2 SLP174 T00830022
Loading
Personal Weather Stations






























Interactive Weather Map
Tropical Storm Tracking
New forecast layout! Learn more

10-Day Weather Forecast

Advertisements
Track Severe Weather on mobile